sensor_id;sensor_type;location;lat;lon;timestamp;temperature;humidity
75451;DHT22;64029;48.244;9.188;2023-06-22T00:00:32;19.20;79.30
75451;DHT22;64029;48.244;9.188;2023-06-22T00:02:59;19.30;79.40
75451;DHT22;64029;48.244;9.188;2023-06-22T00:05:27;19.20;79.40
75451;DHT22;64029;48.244;9.188;2023-06-22T00:07:54;19.20;79.40
75451;DHT22;64029;48.244;9.188;2023-06-22T00:10:21;19.10;79.70
75451;DHT22;64029;48.244;9.188;2023-06-22T00:12:48;19.10;79.40
75451;DHT22;64029;48.244;9.188;2023-06-22T00:15:15;19.10;79.60
75451;DHT22;64029;48.244;9.188;2023-06-22T00:17:42;19.10;79.40
75451;DHT22;64029;48.244;9.188;2023-06-22T00:20:09;19.10;79.50
75451;DHT22;64029;48.244;9.188;2023-06-22T00:22:38;19.10;79.50
75451;DHT22;64029;48.244;9.188;2023-06-22T00:25:06;19.10;79.40
75451;DHT22;64029;48.244;9.188;2023-06-22T00:27:33;19.00;79.50
75451;DHT22;64029;48.244;9.188;2023-06-22T00:30:00;19.00;79.60
75451;DHT22;64029;48.244;9.188;2023-06-22T00:32:27;18.90;79.70
75451;DHT22;64029;48.244;9.188;2023-06-22T00:34:53;18.90;79.80
75451;DHT22;64029;48.244;9.188;2023-06-22T00:37:20;18.90;79.60
75451;DHT22;64029;48.244;9.188;2023-06-22T00:39:52;18.90;79.70
75451;DHT22;64029;48.244;9.188;2023-06-22T00:42:19;18.90;79.70
75451;DHT22;64029;48.244;9.188;2023-06-22T00:44:46;18.80;79.80
75451;DHT22;64029;48.244;9.188;2023-06-22T00:47:14;18.80;79.90
75451;DHT22;64029;48.244;9.188;2023-06-22T00:49:42;18.80;79.80
75451;DHT22;64029;48.244;9.188;2023-06-22T00:52:10;18.80;79.60
75451;DHT22;64029;48.244;9.188;2023-06-22T00:54:39;18.70;79.70
75451;DHT22;64029;48.244;9.188;2023-06-22T00:57:13;18.70;79.50
75451;DHT22;64029;48.244;9.188;2023-06-22T00:59:42;18.70;79.30
75451;DHT22;64029;48.244;9.188;2023-06-22T01:02:09;18.70;79.60
75451;DHT22;64029;48.244;9.188;2023-06-22T01:04:38;18.70;79.50
75451;DHT22;64029;48.244;9.188;2023-06-22T01:07:10;18.60;79.60
75451;DHT22;64029;48.244;9.188;2023-06-22T01:09:46;18.60;79.70
75451;DHT22;64029;48.244;9.188;2023-06-22T01:12:18;18.50;79.80
75451;DHT22;64029;48.244;9.188;2023-06-22T01:14:50;18.50;79.90
75451;DHT22;64029;48.244;9.188;2023-06-22T01:17:20;18.50;79.70
75451;DHT22;64029;48.244;9.188;2023-06-22T01:19:49;18.50;79.70
75451;DHT22;64029;48.244;9.188;2023-06-22T01:22:22;18.50;79.40
75451;DHT22;64029;48.244;9.188;2023-06-22T01:24:56;18.40;79.20
75451;DHT22;64029;48.244;9.188;2023-06-22T01:27:35;18.50;78.80
75451;DHT22;64029;48.244;9.188;2023-06-22T01:30:09;18.40;78.90
75451;DHT22;64029;48.244;9.188;2023-06-22T01:32:38;18.40;79.00
75451;DHT22;64029;48.244;9.188;2023-06-22T01:35:07;18.40;79.30
75451;DHT22;64029;48.244;9.188;2023-06-22T01:37:36;18.30;79.40
75451;DHT22;64029;48.244;9.188;2023-06-22T01:40:05;18.30;79.50
75451;DHT22;64029;48.244;9.188;2023-06-22T01:42:34;18.30;79.10
75451;DHT22;64029;48.244;9.188;2023-06-22T01:45:02;18.30;78.60
75451;DHT22;64029;48.244;9.188;2023-06-22T01:47:31;18.30;79.10
75451;DHT22;64029;48.244;9.188;2023-06-22T01:49:58;18.30;79.00
75451;DHT22;64029;48.244;9.188;2023-06-22T01:52:25;18.30;79.20
75451;DHT22;64029;48.244;9.188;2023-06-22T01:54:52;18.20;79.50
75451;DHT22;64029;48.244;9.188;2023-06-22T01:57:19;18.20;79.40
75451;DHT22;64029;48.244;9.188;2023-06-22T01:59:52;18.20;79.50
75451;DHT22;64029;48.244;9.188;2023-06-22T02:02:21;18.10;79.50
75451;DHT22;64029;48.244;9.188;2023-06-22T02:04:59;18.10;79.50
75451;DHT22;64029;48.244;9.188;2023-06-22T02:07:29;18.10;79.70
75451;DHT22;64029;48.244;9.188;2023-06-22T02:09:59;18.00;79.50
75451;DHT22;64029;48.244;9.188;2023-06-22T02:12:28;18.00;79.80
75451;DHT22;64029;48.244;9.188;2023-06-22T02:14:56;18.00;79.70
75451;DHT22;64029;48.244;9.188;2023-06-22T02:17:25;18.00;79.90
75451;DHT22;64029;48.244;9.188;2023-06-22T02:19:52;17.90;79.90
75451;DHT22;64029;48.244;9.188;2023-06-22T02:22:20;17.90;80.00
75451;DHT22;64029;48.244;9.188;2023-06-22T02:24:47;17.90;80.00
75451;DHT22;64029;48.244;9.188;2023-06-22T02:27:14;17.80;80.00
75451;DHT22;64029;48.244;9.188;2023-06-22T02:29:41;17.80;80.00
75451;DHT22;64029;48.244;9.188;2023-06-22T02:32:08;17.80;79.90
75451;DHT22;64029;48.244;9.188;2023-06-22T02:34:35;17.80;79.70
75451;DHT22;64029;48.244;9.188;2023-06-22T02:37:02;17.80;79.80
75451;DHT22;64029;48.244;9.188;2023-06-22T02:39:30;17.70;79.60
75451;DHT22;64029;48.244;9.188;2023-06-22T02:41:57;17.70;79.50
75451;DHT22;64029;48.244;9.188;2023-06-22T02:44:24;17.70;79.70
75451;DHT22;64029;48.244;9.188;2023-06-22T02:46:51;17.60;79.70
75451;DHT22;64029;48.244;9.188;2023-06-22T02:49:19;17.60;79.70
75451;DHT22;64029;48.244;9.188;2023-06-22T02:51:47;17.60;79.80
75451;DHT22;64029;48.244;9.188;2023-06-22T02:54:14;17.60;79.90
75451;DHT22;64029;48.244;9.188;2023-06-22T02:56:43;17.60;79.90
75451;DHT22;64029;48.244;9.188;2023-06-22T02:59:10;17.50;80.90
75451;DHT22;64029;48.244;9.188;2023-06-22T03:01:37;17.50;79.60
75451;DHT22;64029;48.244;9.188;2023-06-22T03:04:05;17.50;79.20
75451;DHT22;64029;48.244;9.188;2023-06-22T03:06:32;17.50;79.00
75451;DHT22;64029;48.244;9.188;2023-06-22T03:09:01;17.50;78.90
75451;DHT22;64029;48.244;9.188;2023-06-22T03:11:29;17.50;78.80
75451;DHT22;64029;48.244;9.188;2023-06-22T03:13:57;17.50;79.30
75451;DHT22;64029;48.244;9.188;2023-06-22T03:16:24;17.50;79.20
75451;DHT22;64029;48.244;9.188;2023-06-22T03:18:51;17.50;78.80
75451;DHT22;64029;48.244;9.188;2023-06-22T03:21:19;17.50;78.60
75451;DHT22;64029;48.244;9.188;2023-06-22T03:23:45;17.50;79.00
75451;DHT22;64029;48.244;9.188;2023-06-22T03:26:12;17.50;79.00
75451;DHT22;64029;48.244;9.188;2023-06-22T03:28:39;17.50;78.80
75451;DHT22;64029;48.244;9.188;2023-06-22T03:31:08;17.50;79.30
75451;DHT22;64029;48.244;9.188;2023-06-22T03:33:35;17.40;79.20
75451;DHT22;64029;48.244;9.188;2023-06-22T03:36:02;17.40;79.40
75451;DHT22;64029;48.244;9.188;2023-06-22T03:38:29;17.40;79.30
75451;DHT22;64029;48.244;9.188;2023-06-22T03:40:56;17.40;79.30
75451;DHT22;64029;48.244;9.188;2023-06-22T03:43:23;17.30;79.50
75451;DHT22;64029;48.244;9.188;2023-06-22T03:45:50;17.30;79.70
75451;DHT22;64029;48.244;9.188;2023-06-22T03:48:18;17.30;80.30
75451;DHT22;64029;48.244;9.188;2023-06-22T03:50:45;17.20;80.30
75451;DHT22;64029;48.244;9.188;2023-06-22T03:53:12;17.20;80.30
75451;DHT22;64029;48.244;9.188;2023-06-22T03:55:48;17.20;79.70
75451;DHT22;64029;48.244;9.188;2023-06-22T03:58:15;17.10;79.60
75451;DHT22;64029;48.244;9.188;2023-06-22T04:00:42;17.10;79.40
75451;DHT22;64029;48.244;9.188;2023-06-22T04:03:08;17.10;79.60
75451;DHT22;64029;48.244;9.188;2023-06-22T04:05:39;17.10;79.40
75451;DHT22;64029;48.244;9.188;2023-06-22T04:08:06;17.10;79.50
75451;DHT22;64029;48.244;9.188;2023-06-22T04:10:34;17.10;79.40
75451;DHT22;64029;48.244;9.188;2023-06-22T04:13:00;17.10;79.20
75451;DHT22;64029;48.244;9.188;2023-06-22T04:15:27;17.10;79.20
75451;DHT22;64029;48.244;9.188;2023-06-22T04:17:55;17.00;79.30
75451;DHT22;64029;48.244;9.188;2023-06-22T04:20:22;17.10;79.80
75451;DHT22;64029;48.244;9.188;2023-06-22T04:22:52;17.00;79.80
75451;DHT22;64029;48.244;9.188;2023-06-22T04:25:19;17.00;79.80
75451;DHT22;64029;48.244;9.188;2023-06-22T04:27:47;17.00;79.60
75451;DHT22;64029;48.244;9.188;2023-06-22T04:30:14;17.00;79.70
75451;DHT22;64029;48.244;9.188;2023-06-22T04:32:42;17.00;79.80
75451;DHT22;64029;48.244;9.188;2023-06-22T04:35:09;17.00;79.60
75451;DHT22;64029;48.244;9.188;2023-06-22T04:37:36;17.00;80.00
75451;DHT22;64029;48.244;9.188;2023-06-22T04:40:06;17.00;80.10
75451;DHT22;64029;48.244;9.188;2023-06-22T04:42:34;17.00;79.90
75451;DHT22;64029;48.244;9.188;2023-06-22T04:45:01;17.10;80.50
75451;DHT22;64029;48.244;9.188;2023-06-22T04:47:28;17.00;80.40
75451;DHT22;64029;48.244;9.188;2023-06-22T04:49:55;17.10;80.50
75451;DHT22;64029;48.244;9.188;2023-06-22T04:52:21;17.10;80.30
75451;DHT22;64029;48.244;9.188;2023-06-22T04:54:50;17.10;80.30
75451;DHT22;64029;48.244;9.188;2023-06-22T04:57:22;17.10;80.20
75451;DHT22;64029;48.244;9.188;2023-06-22T04:59:56;17.10;80.40
75451;DHT22;64029;48.244;9.188;2023-06-22T05:02:23;17.10;80.40
75451;DHT22;64029;48.244;9.188;2023-06-22T05:04:58;17.20;80.10
75451;DHT22;64029;48.244;9.188;2023-06-22T05:07:25;17.20;80.70
75451;DHT22;64029;48.244;9.188;2023-06-22T05:09:52;17.20;79.80
75451;DHT22;64029;48.244;9.188;2023-06-22T05:12:19;17.30;79.80
75451;DHT22;64029;48.244;9.188;2023-06-22T05:14:47;17.30;80.30
75451;DHT22;64029;48.244;9.188;2023-06-22T05:17:14;17.30;80.50
75451;DHT22;64029;48.244;9.188;2023-06-22T05:19:44;17.40;80.80
75451;DHT22;64029;48.244;9.188;2023-06-22T05:22:14;17.40;81.10
75451;DHT22;64029;48.244;9.188;2023-06-22T05:24:41;17.40;81.00
75451;DHT22;64029;48.244;9.188;2023-06-22T05:27:08;17.50;81.10
75451;DHT22;64029;48.244;9.188;2023-06-22T05:29:35;17.50;80.50
75451;DHT22;64029;48.244;9.188;2023-06-22T05:32:04;17.50;80.50
75451;DHT22;64029;48.244;9.188;2023-06-22T05:34:31;17.60;80.90
75451;DHT22;64029;48.244;9.188;2023-06-22T05:36:58;17.60;80.60
75451;DHT22;64029;48.244;9.188;2023-06-22T05:39:25;17.70;80.40
75451;DHT22;64029;48.244;9.188;2023-06-22T05:41:52;17.70;80.70
75451;DHT22;64029;48.244;9.188;2023-06-22T05:44:19;17.80;80.60
75451;DHT22;64029;48.244;9.188;2023-06-22T05:46:46;17.80;79.80
75451;DHT22;64029;48.244;9.188;2023-06-22T05:49:15;17.90;80.20
75451;DHT22;64029;48.244;9.188;2023-06-22T05:51:42;17.90;80.30
75451;DHT22;64029;48.244;9.188;2023-06-22T05:54:09;18.00;79.40
75451;DHT22;64029;48.244;9.188;2023-06-22T05:56:38;18.10;82.10
75451;DHT22;64029;48.244;9.188;2023-06-22T05:59:05;18.20;80.40
75451;DHT22;64029;48.244;9.188;2023-06-22T06:01:32;18.30;81.80
75451;DHT22;64029;48.244;9.188;2023-06-22T06:04:01;18.30;80.60
75451;DHT22;64029;48.244;9.188;2023-06-22T06:06:30;18.40;82.10
75451;DHT22;64029;48.244;9.188;2023-06-22T06:08:57;18.50;82.50
75451;DHT22;64029;48.244;9.188;2023-06-22T06:11:25;18.60;82.00
75451;DHT22;64029;48.244;9.188;2023-06-22T06:13:51;18.70;82.00
75451;DHT22;64029;48.244;9.188;2023-06-22T06:16:18;18.80;82.50
75451;DHT22;64029;48.244;9.188;2023-06-22T06:18:45;18.90;82.50
75451;DHT22;64029;48.244;9.188;2023-06-22T06:21:14;19.10;83.50
75451;DHT22;64029;48.244;9.188;2023-06-22T06:23:42;19.30;83.30
75451;DHT22;64029;48.244;9.188;2023-06-22T06:26:09;19.40;82.20
75451;DHT22;64029;48.244;9.188;2023-06-22T06:28:36;19.50;82.80
75451;DHT22;64029;48.244;9.188;2023-06-22T06:31:03;19.60;83.00
75451;DHT22;64029;48.244;9.188;2023-06-22T06:33:34;19.80;82.90
75451;DHT22;64029;48.244;9.188;2023-06-22T06:36:01;19.90;82.30
75451;DHT22;64029;48.244;9.188;2023-06-22T06:38:29;20.00;82.20
75451;DHT22;64029;48.244;9.188;2023-06-22T06:40:58;20.20;82.60
75451;DHT22;64029;48.244;9.188;2023-06-22T06:43:24;20.30;82.30
75451;DHT22;64029;48.244;9.188;2023-06-22T06:45:51;20.40;82.40
75451;DHT22;64029;48.244;9.188;2023-06-22T06:48:18;20.60;82.30
75451;DHT22;64029;48.244;9.188;2023-06-22T06:50:45;20.70;82.00
75451;DHT22;64029;48.244;9.188;2023-06-22T06:53:12;20.90;82.10
75451;DHT22;64029;48.244;9.188;2023-06-22T06:55:39;21.10;81.70
75451;DHT22;64029;48.244;9.188;2023-06-22T06:58:07;21.30;81.90
75451;DHT22;64029;48.244;9.188;2023-06-22T07:00:35;21.50;81.50
75451;DHT22;64029;48.244;9.188;2023-06-22T07:03:02;21.70;81.10
75451;DHT22;64029;48.244;9.188;2023-06-22T07:05:29;21.90;81.20
75451;DHT22;64029;48.244;9.188;2023-06-22T07:07:56;22.10;79.90
75451;DHT22;64029;48.244;9.188;2023-06-22T07:10:23;22.30;79.70
75451;DHT22;64029;48.244;9.188;2023-06-22T07:12:50;22.50;80.30
75451;DHT22;64029;48.244;9.188;2023-06-22T07:15:18;22.70;80.20
75451;DHT22;64029;48.244;9.188;2023-06-22T07:17:45;22.90;79.90
75451;DHT22;64029;48.244;9.188;2023-06-22T07:20:12;23.10;80.00
75451;DHT22;64029;48.244;9.188;2023-06-22T07:22:40;23.30;80.30
75451;DHT22;64029;48.244;9.188;2023-06-22T07:25:08;23.50;79.60
75451;DHT22;64029;48.244;9.188;2023-06-22T07:27:36;23.60;79.30
75451;DHT22;64029;48.244;9.188;2023-06-22T07:30:05;23.80;78.90
75451;DHT22;64029;48.244;9.188;2023-06-22T07:32:33;23.90;78.60
75451;DHT22;64029;48.244;9.188;2023-06-22T07:35:00;24.10;78.30
75451;DHT22;64029;48.244;9.188;2023-06-22T07:37:28;24.20;78.10
75451;DHT22;64029;48.244;9.188;2023-06-22T07:39:54;24.30;77.40
75451;DHT22;64029;48.244;9.188;2023-06-22T07:42:24;24.40;76.90
75451;DHT22;64029;48.244;9.188;2023-06-22T07:44:51;24.60;77.00
75451;DHT22;64029;48.244;9.188;2023-06-22T07:47:17;24.70;76.00
75451;DHT22;64029;48.244;9.188;2023-06-22T07:49:46;24.80;76.00
75451;DHT22;64029;48.244;9.188;2023-06-22T07:52:13;25.00;75.50
75451;DHT22;64029;48.244;9.188;2023-06-22T07:54:39;25.10;75.00
75451;DHT22;64029;48.244;9.188;2023-06-22T07:57:06;25.10;73.90
75451;DHT22;64029;48.244;9.188;2023-06-22T07:59:33;25.20;73.90
75451;DHT22;64029;48.244;9.188;2023-06-22T08:02:00;25.40;74.70
75451;DHT22;64029;48.244;9.188;2023-06-22T08:04:28;25.50;73.40
75451;DHT22;64029;48.244;9.188;2023-06-22T08:06:58;25.60;72.70
75451;DHT22;64029;48.244;9.188;2023-06-22T08:09:27;25.70;72.50
75451;DHT22;64029;48.244;9.188;2023-06-22T08:11:54;25.80;71.70
75451;DHT22;64029;48.244;9.188;2023-06-22T08:14:22;25.90;71.60
75451;DHT22;64029;48.244;9.188;2023-06-22T08:16:48;25.90;71.50
75451;DHT22;64029;48.244;9.188;2023-06-22T08:19:15;26.10;71.10
75451;DHT22;64029;48.244;9.188;2023-06-22T08:21:42;26.20;70.80
75451;DHT22;64029;48.244;9.188;2023-06-22T08:24:10;26.30;71.00
75451;DHT22;64029;48.244;9.188;2023-06-22T08:26:37;26.40;69.80
75451;DHT22;64029;48.244;9.188;2023-06-22T08:29:04;26.50;68.50
75451;DHT22;64029;48.244;9.188;2023-06-22T08:31:31;26.50;68.70
75451;DHT22;64029;48.244;9.188;2023-06-22T08:33:59;26.50;67.90
75451;DHT22;64029;48.244;9.188;2023-06-22T08:36:26;26.60;68.60
75451;DHT22;64029;48.244;9.188;2023-06-22T08:38:54;26.80;68.10
75451;DHT22;64029;48.244;9.188;2023-06-22T08:41:24;26.80;66.90
75451;DHT22;64029;48.244;9.188;2023-06-22T08:43:51;26.80;67.50
75451;DHT22;64029;48.244;9.188;2023-06-22T08:46:19;26.90;67.50
75451;DHT22;64029;48.244;9.188;2023-06-22T08:48:48;26.90;66.90
75451;DHT22;64029;48.244;9.188;2023-06-22T08:51:15;27.00;67.30
75451;DHT22;64029;48.244;9.188;2023-06-22T08:53:43;27.10;66.60
75451;DHT22;64029;48.244;9.188;2023-06-22T08:56:10;27.10;67.00
75451;DHT22;64029;48.244;9.188;2023-06-22T08:58:38;27.20;67.10
75451;DHT22;64029;48.244;9.188;2023-06-22T09:01:05;27.30;67.00
75451;DHT22;64029;48.244;9.188;2023-06-22T09:03:32;27.30;67.20
75451;DHT22;64029;48.244;9.188;2023-06-22T09:06:01;27.40;67.40
75451;DHT22;64029;48.244;9.188;2023-06-22T09:08:28;27.50;65.90
75451;DHT22;64029;48.244;9.188;2023-06-22T09:10:55;27.50;66.80
75451;DHT22;64029;48.244;9.188;2023-06-22T09:13:22;27.50;65.30
75451;DHT22;64029;48.244;9.188;2023-06-22T09:15:50;27.60;66.90
75451;DHT22;64029;48.244;9.188;2023-06-22T09:18:18;27.60;66.00
75451;DHT22;64029;48.244;9.188;2023-06-22T09:20:45;27.70;66.40
75451;DHT22;64029;48.244;9.188;2023-06-22T09:23:12;27.70;66.30
75451;DHT22;64029;48.244;9.188;2023-06-22T09:25:39;27.70;66.10
75451;DHT22;64029;48.244;9.188;2023-06-22T09:28:06;27.70;65.70
75451;DHT22;64029;48.244;9.188;2023-06-22T09:30:33;27.80;66.00
75451;DHT22;64029;48.244;9.188;2023-06-22T09:33:01;27.90;66.60
75451;DHT22;64029;48.244;9.188;2023-06-22T09:35:28;27.90;66.40
75451;DHT22;64029;48.244;9.188;2023-06-22T09:37:55;28.00;66.40
75451;DHT22;64029;48.244;9.188;2023-06-22T09:40:22;28.00;66.00
75451;DHT22;64029;48.244;9.188;2023-06-22T09:42:48;28.00;63.80
75451;DHT22;64029;48.244;9.188;2023-06-22T09:45:15;28.00;65.10
75451;DHT22;64029;48.244;9.188;2023-06-22T09:47:42;28.10;65.80
75451;DHT22;64029;48.244;9.188;2023-06-22T09:50:11;28.10;66.00
75451;DHT22;64029;48.244;9.188;2023-06-22T09:52:38;28.20;65.90
75451;DHT22;64029;48.244;9.188;2023-06-22T09:55:06;28.20;66.00
75451;DHT22;64029;48.244;9.188;2023-06-22T09:57:32;28.20;65.90
75451;DHT22;64029;48.244;9.188;2023-06-22T09:59:59;28.30;66.00
75451;DHT22;64029;48.244;9.188;2023-06-22T10:02:26;28.30;65.70
75451;DHT22;64029;48.244;9.188;2023-06-22T10:04:53;28.30;64.80
75451;DHT22;64029;48.244;9.188;2023-06-22T10:07:21;28.30;65.70
75451;DHT22;64029;48.244;9.188;2023-06-22T10:09:48;28.40;66.00
75451;DHT22;64029;48.244;9.188;2023-06-22T10:12:15;28.40;65.80
75451;DHT22;64029;48.244;9.188;2023-06-22T10:14:41;28.40;65.70
75451;DHT22;64029;48.244;9.188;2023-06-22T10:17:08;28.50;65.40
75451;DHT22;64029;48.244;9.188;2023-06-22T10:19:35;28.40;64.90
75451;DHT22;64029;48.244;9.188;2023-06-22T10:22:03;28.40;64.10
75451;DHT22;64029;48.244;9.188;2023-06-22T10:24:31;28.50;65.30
75451;DHT22;64029;48.244;9.188;2023-06-22T10:26:58;28.50;64.70
75451;DHT22;64029;48.244;9.188;2023-06-22T10:29:25;28.40;63.70
75451;DHT22;64029;48.244;9.188;2023-06-22T10:31:52;28.50;65.70
75451;DHT22;64029;48.244;9.188;2023-06-22T10:34:19;28.50;64.00
75451;DHT22;64029;48.244;9.188;2023-06-22T10:36:46;28.50;64.50
75451;DHT22;64029;48.244;9.188;2023-06-22T10:39:14;28.50;64.50
75451;DHT22;64029;48.244;9.188;2023-06-22T10:41:42;28.50;64.50
75451;DHT22;64029;48.244;9.188;2023-06-22T10:44:09;28.50;64.70
75451;DHT22;64029;48.244;9.188;2023-06-22T10:46:36;28.50;64.50
75451;DHT22;64029;48.244;9.188;2023-06-22T10:49:03;28.50;64.40
75451;DHT22;64029;48.244;9.188;2023-06-22T10:51:30;28.60;64.10
75451;DHT22;64029;48.244;9.188;2023-06-22T10:53:57;28.60;64.50
75451;DHT22;64029;48.244;9.188;2023-06-22T10:56:24;28.60;64.30
75451;DHT22;64029;48.244;9.188;2023-06-22T10:58:52;28.70;64.50
75451;DHT22;64029;48.244;9.188;2023-06-22T11:01:20;28.70;63.00
75451;DHT22;64029;48.244;9.188;2023-06-22T11:03:47;28.70;64.20
75451;DHT22;64029;48.244;9.188;2023-06-22T11:06:14;28.70;64.50
75451;DHT22;64029;48.244;9.188;2023-06-22T11:08:44;28.80;64.50
75451;DHT22;64029;48.244;9.188;2023-06-22T11:11:10;28.80;64.40
75451;DHT22;64029;48.244;9.188;2023-06-22T11:13:38;28.80;63.40
75451;DHT22;64029;48.244;9.188;2023-06-22T11:16:06;28.70;63.30
75451;DHT22;64029;48.244;9.188;2023-06-22T11:18:33;28.70;63.60
75451;DHT22;64029;48.244;9.188;2023-06-22T11:20:59;28.80;63.50
75451;DHT22;64029;48.244;9.188;2023-06-22T11:23:26;28.80;63.70
75451;DHT22;64029;48.244;9.188;2023-06-22T11:25:54;28.80;63.50
75451;DHT22;64029;48.244;9.188;2023-06-22T11:28:20;28.80;63.30
75451;DHT22;64029;48.244;9.188;2023-06-22T11:30:47;28.80;63.50
75451;DHT22;64029;48.244;9.188;2023-06-22T11:33:16;28.70;63.00
75451;DHT22;64029;48.244;9.188;2023-06-22T11:35:43;28.70;63.00
75451;DHT22;64029;48.244;9.188;2023-06-22T11:38:10;28.60;63.00
75451;DHT22;64029;48.244;9.188;2023-06-22T11:40:37;28.70;63.00
75451;DHT22;64029;48.244;9.188;2023-06-22T11:43:03;28.70;63.30
75451;DHT22;64029;48.244;9.188;2023-06-22T11:45:30;28.80;63.40
75451;DHT22;64029;48.244;9.188;2023-06-22T11:47:57;28.80;63.20
75451;DHT22;64029;48.244;9.188;2023-06-22T11:50:25;28.80;63.00
75451;DHT22;64029;48.244;9.188;2023-06-22T11:52:54;28.80;62.60
75451;DHT22;64029;48.244;9.188;2023-06-22T11:55:21;28.80;62.90
75451;DHT22;64029;48.244;9.188;2023-06-22T11:57:55;28.80;62.00
75451;DHT22;64029;48.244;9.188;2023-06-22T12:00:24;28.80;62.30
75451;DHT22;64029;48.244;9.188;2023-06-22T12:02:51;28.90;62.70
75451;DHT22;64029;48.244;9.188;2023-06-22T12:05:18;28.80;62.50
75451;DHT22;64029;48.244;9.188;2023-06-22T12:07:47;28.80;62.40
75451;DHT22;64029;48.244;9.188;2023-06-22T12:10:14;28.80;61.90
75451;DHT22;64029;48.244;9.188;2023-06-22T12:12:41;28.80;62.20
75451;DHT22;64029;48.244;9.188;2023-06-22T12:15:09;28.80;61.70
75451;DHT22;64029;48.244;9.188;2023-06-22T12:17:36;28.80;62.00
75451;DHT22;64029;48.244;9.188;2023-06-22T12:20:05;28.90;61.60
75451;DHT22;64029;48.244;9.188;2023-06-22T12:22:33;28.90;62.20
75451;DHT22;64029;48.244;9.188;2023-06-22T12:25:01;28.90;62.20
75451;DHT22;64029;48.244;9.188;2023-06-22T12:27:28;28.90;62.40
75451;DHT22;64029;48.244;9.188;2023-06-22T12:29:56;28.90;62.40
75451;DHT22;64029;48.244;9.188;2023-06-22T12:32:23;28.90;62.40
75451;DHT22;64029;48.244;9.188;2023-06-22T12:34:51;28.80;62.50
75451;DHT22;64029;48.244;9.188;2023-06-22T12:37:17;28.80;62.70
75451;DHT22;64029;48.244;9.188;2023-06-22T12:39:44;28.80;63.10
75451;DHT22;64029;48.244;9.188;2023-06-22T12:42:13;28.90;63.00
75451;DHT22;64029;48.244;9.188;2023-06-22T12:44:40;28.90;63.00
75451;DHT22;64029;48.244;9.188;2023-06-22T12:47:07;28.90;63.10
75451;DHT22;64029;48.244;9.188;2023-06-22T12:49:34;28.90;63.40
75451;DHT22;64029;48.244;9.188;2023-06-22T12:52:01;28.90;63.70
75451;DHT22;64029;48.244;9.188;2023-06-22T12:54:28;29.00;63.90
75451;DHT22;64029;48.244;9.188;2023-06-22T12:56:55;29.00;64.00
75451;DHT22;64029;48.244;9.188;2023-06-22T12:59:24;29.00;64.20
75451;DHT22;64029;48.244;9.188;2023-06-22T13:01:50;29.00;64.30
75451;DHT22;64029;48.244;9.188;2023-06-22T13:04:17;29.00;64.40
75451;DHT22;64029;48.244;9.188;2023-06-22T13:06:47;29.00;64.20
75451;DHT22;64029;48.244;9.188;2023-06-22T13:09:15;29.00;63.90
75451;DHT22;64029;48.244;9.188;2023-06-22T13:11:43;29.00;64.40
75451;DHT22;64029;48.244;9.188;2023-06-22T13:14:10;29.00;64.40
75451;DHT22;64029;48.244;9.188;2023-06-22T13:16:38;29.10;64.70
75451;DHT22;64029;48.244;9.188;2023-06-22T13:19:04;29.00;64.70
75451;DHT22;64029;48.244;9.188;2023-06-22T13:21:31;29.10;64.80
75451;DHT22;64029;48.244;9.188;2023-06-22T13:23:59;29.00;64.40
75451;DHT22;64029;48.244;9.188;2023-06-22T13:26:26;29.00;63.70
75451;DHT22;64029;48.244;9.188;2023-06-22T13:28:54;29.00;64.30
75451;DHT22;64029;48.244;9.188;2023-06-22T13:31:21;29.00;64.40
75451;DHT22;64029;48.244;9.188;2023-06-22T13:33:49;29.00;64.50
75451;DHT22;64029;48.244;9.188;2023-06-22T13:36:18;29.00;64.90
75451;DHT22;64029;48.244;9.188;2023-06-22T13:38:45;29.00;62.70
75451;DHT22;64029;48.244;9.188;2023-06-22T13:41:12;29.00;62.80
75451;DHT22;64029;48.244;9.188;2023-06-22T13:43:39;28.90;62.20
75451;DHT22;64029;48.244;9.188;2023-06-22T13:46:06;29.00;62.90
75451;DHT22;64029;48.244;9.188;2023-06-22T13:48:33;28.90;59.30
75451;DHT22;64029;48.244;9.188;2023-06-22T13:51:01;28.90;59.40
75451;DHT22;64029;48.244;9.188;2023-06-22T13:53:28;28.80;57.90
75451;DHT22;64029;48.244;9.188;2023-06-22T13:55:55;28.70;57.70
75451;DHT22;64029;48.244;9.188;2023-06-22T13:58:22;28.70;57.50
75451;DHT22;64029;48.244;9.188;2023-06-22T14:00:49;28.70;58.70
75451;DHT22;64029;48.244;9.188;2023-06-22T14:03:16;28.70;56.90
75451;DHT22;64029;48.244;9.188;2023-06-22T14:05:46;28.60;55.70
75451;DHT22;64029;48.244;9.188;2023-06-22T14:08:14;28.60;57.10
75451;DHT22;64029;48.244;9.188;2023-06-22T14:10:41;28.60;57.70
75451;DHT22;64029;48.244;9.188;2023-06-22T14:13:07;28.60;55.90
75451;DHT22;64029;48.244;9.188;2023-06-22T14:15:34;28.70;57.20
75451;DHT22;64029;48.244;9.188;2023-06-22T14:18:01;28.60;53.50
75451;DHT22;64029;48.244;9.188;2023-06-22T14:20:28;28.50;53.70
75451;DHT22;64029;48.244;9.188;2023-06-22T14:22:55;28.50;52.70
75451;DHT22;64029;48.244;9.188;2023-06-22T14:25:23;28.40;51.60
75451;DHT22;64029;48.244;9.188;2023-06-22T14:27:50;28.40;52.40
75451;DHT22;64029;48.244;9.188;2023-06-22T14:30:17;28.40;51.60
75451;DHT22;64029;48.244;9.188;2023-06-22T14:32:44;28.30;51.80
75451;DHT22;64029;48.244;9.188;2023-06-22T14:35:11;28.40;51.60
75451;DHT22;64029;48.244;9.188;2023-06-22T14:37:38;28.50;52.30
75451;DHT22;64029;48.244;9.188;2023-06-22T14:40:05;28.50;52.60
75451;DHT22;64029;48.244;9.188;2023-06-22T14:42:34;28.50;50.50
75451;DHT22;64029;48.244;9.188;2023-06-22T14:45:00;28.50;51.80
75451;DHT22;64029;48.244;9.188;2023-06-22T14:47:27;28.40;51.40
75451;DHT22;64029;48.244;9.188;2023-06-22T14:49:54;28.50;52.60
75451;DHT22;64029;48.244;9.188;2023-06-22T14:52:21;28.40;51.50
75451;DHT22;64029;48.244;9.188;2023-06-22T14:54:48;28.40;52.20
75451;DHT22;64029;48.244;9.188;2023-06-22T14:57:17;28.50;54.00
75451;DHT22;64029;48.244;9.188;2023-06-22T14:59:46;28.50;52.30
75451;DHT22;64029;48.244;9.188;2023-06-22T15:02:14;28.40;50.30
75451;DHT22;64029;48.244;9.188;2023-06-22T15:04:41;28.40;50.90
75451;DHT22;64029;48.244;9.188;2023-06-22T15:07:08;28.40;52.50
75451;DHT22;64029;48.244;9.188;2023-06-22T15:09:35;28.40;51.40
75451;DHT22;64029;48.244;9.188;2023-06-22T15:12:05;28.40;52.20
75451;DHT22;64029;48.244;9.188;2023-06-22T15:14:37;28.40;51.90
75451;DHT22;64029;48.244;9.188;2023-06-22T15:17:06;28.30;50.90
75451;DHT22;64029;48.244;9.188;2023-06-22T15:19:34;28.20;49.30
75451;DHT22;64029;48.244;9.188;2023-06-22T15:22:02;28.20;51.60
75451;DHT22;64029;48.244;9.188;2023-06-22T15:24:29;28.20;50.60
75451;DHT22;64029;48.244;9.188;2023-06-22T15:26:56;28.20;50.60
75451;DHT22;64029;48.244;9.188;2023-06-22T15:29:22;28.10;50.20
75451;DHT22;64029;48.244;9.188;2023-06-22T15:31:49;28.10;50.00